sensor_id;sensor_type;location;lat;lon;timestamp;temperature;humidity
15286;DHT22;7744;52.172;10.668;2023-05-10T00:01:04;11.70;1.00
15286;DHT22;7744;52.172;10.668;2023-05-10T00:03:29;12.10;1.00
15286;DHT22;7744;52.172;10.668;2023-05-10T00:05:55;11.20;1.00
15286;DHT22;7744;52.172;10.668;2023-05-10T00:08:20;11.20;1.00
15286;DHT22;7744;52.172;10.668;2023-05-10T00:10:46;11.20;1.00
15286;DHT22;7744;52.172;10.668;2023-05-10T00:13:12;11.20;1.00
15286;DHT22;7744;52.172;10.668;2023-05-10T00:15:37;11.10;1.00
15286;DHT22;7744;52.172;10.668;2023-05-10T00:18:03;11.10;1.00
15286;DHT22;7744;52.172;10.668;2023-05-10T00:20:29;11.40;1.00
15286;DHT22;7744;52.172;10.668;2023-05-10T00:22:55;11.10;1.00
15286;DHT22;7744;52.172;10.668;2023-05-10T00:25:20;11.00;1.00
15286;DHT22;7744;52.172;10.668;2023-05-10T00:27:47;11.00;1.00
15286;DHT22;7744;52.172;10.668;2023-05-10T00:30:13;10.90;1.00
15286;DHT22;7744;52.172;10.668;2023-05-10T00:32:38;10.90;1.00
15286;DHT22;7744;52.172;10.668;2023-05-10T00:35:04;10.90;1.00
15286;DHT22;7744;52.172;10.668;2023-05-10T00:37:30;10.90;1.00
15286;DHT22;7744;52.172;10.668;2023-05-10T00:39:56;10.90;1.00
15286;DHT22;7744;52.172;10.668;2023-05-10T00:42:21;10.90;1.00
15286;DHT22;7744;52.172;10.668;2023-05-10T00:44:47;10.90;1.00
15286;DHT22;7744;52.172;10.668;2023-05-10T00:47:14;10.90;1.00
15286;DHT22;7744;52.172;10.668;2023-05-10T00:49:41;10.80;1.00
15286;DHT22;7744;52.172;10.668;2023-05-10T00:52:07;10.80;1.00
15286;DHT22;7744;52.172;10.668;2023-05-10T00:54:33;10.80;1.00
15286;DHT22;7744;52.172;10.668;2023-05-10T00:56:59;11.70;1.00
15286;DHT22;7744;52.172;10.668;2023-05-10T00:59:25;11.00;1.00
15286;DHT22;7744;52.172;10.668;2023-05-10T01:01:50;12.00;1.00
15286;DHT22;7744;52.172;10.668;2023-05-10T01:04:17;11.10;1.00
15286;DHT22;7744;52.172;10.668;2023-05-10T01:06:43;11.00;1.00
15286;DHT22;7744;52.172;10.668;2023-05-10T01:09:09;10.90;1.00
15286;DHT22;7744;52.172;10.668;2023-05-10T01:11:35;11.00;1.00
15286;DHT22;7744;52.172;10.668;2023-05-10T01:14:02;10.90;1.00
15286;DHT22;7744;52.172;10.668;2023-05-10T01:16:29;11.00;1.00
15286;DHT22;7744;52.172;10.668;2023-05-10T01:18:57;11.00;1.00
15286;DHT22;7744;52.172;10.668;2023-05-10T01:32:54;10.90;1.00
15286;DHT22;7744;52.172;10.668;2023-05-10T01:35:35;10.80;1.00
15286;DHT22;7744;52.172;10.668;2023-05-10T01:46:27;10.70;1.00
15286;DHT22;7744;52.172;10.668;2023-05-10T01:48:55;10.70;1.00
15286;DHT22;7744;52.172;10.668;2023-05-10T01:51:25;10.60;1.00
15286;DHT22;7744;52.172;10.668;2023-05-10T01:53:54;10.50;1.00
15286;DHT22;7744;52.172;10.668;2023-05-10T01:56:24;10.80;1.00
15286;DHT22;7744;52.172;10.668;2023-05-10T01:58:51;10.60;1.00
15286;DHT22;7744;52.172;10.668;2023-05-10T02:01:19;10.60;1.00
15286;DHT22;7744;52.172;10.668;2023-05-10T02:03:46;10.50;1.00
15286;DHT22;7744;52.172;10.668;2023-05-10T02:06:15;10.50;1.00
15286;DHT22;7744;52.172;10.668;2023-05-10T02:08:42;10.50;1.00
15286;DHT22;7744;52.172;10.668;2023-05-10T02:11:09;10.50;1.00
15286;DHT22;7744;52.172;10.668;2023-05-10T02:13:38;10.50;1.00
15286;DHT22;7744;52.172;10.668;2023-05-10T02:16:06;10.50;1.00
15286;DHT22;7744;52.172;10.668;2023-05-10T02:18:33;10.50;1.00
15286;DHT22;7744;52.172;10.668;2023-05-10T02:21:01;10.50;1.00
15286;DHT22;7744;52.172;10.668;2023-05-10T02:23:28;10.50;1.00
15286;DHT22;7744;52.172;10.668;2023-05-10T02:25:55;10.50;1.00
15286;DHT22;7744;52.172;10.668;2023-05-10T02:28:23;10.50;1.00
15286;DHT22;7744;52.172;10.668;2023-05-10T02:30:49;10.50;1.00
15286;DHT22;7744;52.172;10.668;2023-05-10T02:33:15;10.60;1.00
15286;DHT22;7744;52.172;10.668;2023-05-10T02:35:42;10.60;1.00
15286;DHT22;7744;52.172;10.668;2023-05-10T02:38:09;10.50;1.00
15286;DHT22;7744;52.172;10.668;2023-05-10T02:40:36;10.60;1.00
15286;DHT22;7744;52.172;10.668;2023-05-10T02:43:04;10.60;1.00
15286;DHT22;7744;52.172;10.668;2023-05-10T02:45:32;10.60;1.00
15286;DHT22;7744;52.172;10.668;2023-05-10T02:47:59;10.60;1.00
15286;DHT22;7744;52.172;10.668;2023-05-10T02:50:27;10.60;1.00
15286;DHT22;7744;52.172;10.668;2023-05-10T02:52:56;11.20;1.00
15286;DHT22;7744;52.172;10.668;2023-05-10T02:55:28;10.50;1.00
15286;DHT22;7744;52.172;10.668;2023-05-10T02:58:00;10.50;1.00
15286;DHT22;7744;52.172;10.668;2023-05-10T03:00:25;10.60;1.00
15286;DHT22;7744;52.172;10.668;2023-05-10T03:02:51;10.50;1.00
15286;DHT22;7744;52.172;10.668;2023-05-10T03:05:17;10.50;1.00
15286;DHT22;7744;52.172;10.668;2023-05-10T03:07:43;10.50;1.00
15286;DHT22;7744;52.172;10.668;2023-05-10T03:10:09;10.60;1.00
15286;DHT22;7744;52.172;10.668;2023-05-10T03:15:28;10.70;1.00
15286;DHT22;7744;52.172;10.668;2023-05-10T03:18:09;10.70;1.00
15286;DHT22;7744;52.172;10.668;2023-05-10T03:20:42;10.80;1.00
15286;DHT22;7744;52.172;10.668;2023-05-10T03:25:44;10.80;1.00
15286;DHT22;7744;52.172;10.668;2023-05-10T03:28:12;10.80;1.00
15286;DHT22;7744;52.172;10.668;2023-05-10T03:30:41;10.80;1.00
15286;DHT22;7744;52.172;10.668;2023-05-10T03:33:07;10.90;1.00
15286;DHT22;7744;52.172;10.668;2023-05-10T03:35:33;10.80;1.00
15286;DHT22;7744;52.172;10.668;2023-05-10T03:37:58;10.90;1.00
15286;DHT22;7744;52.172;10.668;2023-05-10T03:40:25;10.80;1.00
15286;DHT22;7744;52.172;10.668;2023-05-10T03:42:51;10.80;1.00
15286;DHT22;7744;52.172;10.668;2023-05-10T03:45:16;10.80;1.00
15286;DHT22;7744;52.172;10.668;2023-05-10T03:47:42;11.60;1.00
15286;DHT22;7744;52.172;10.668;2023-05-10T03:50:08;11.60;1.00
15286;DHT22;7744;52.172;10.668;2023-05-10T03:52:33;10.90;1.00
15286;DHT22;7744;52.172;10.668;2023-05-10T03:54:59;10.90;1.00
15286;DHT22;7744;52.172;10.668;2023-05-10T03:57:24;10.90;1.00
15286;DHT22;7744;52.172;10.668;2023-05-10T03:59:50;11.50;1.00
15286;DHT22;7744;52.172;10.668;2023-05-10T04:02:16;10.80;1.00
15286;DHT22;7744;52.172;10.668;2023-05-10T04:04:41;10.90;1.00
15286;DHT22;7744;52.172;10.668;2023-05-10T04:07:07;11.00;1.00
15286;DHT22;7744;52.172;10.668;2023-05-10T04:09:32;11.00;1.00
15286;DHT22;7744;52.172;10.668;2023-05-10T04:11:59;11.10;1.00
15286;DHT22;7744;52.172;10.668;2023-05-10T04:14:25;11.10;1.00
15286;DHT22;7744;52.172;10.668;2023-05-10T04:16:51;11.10;1.00
15286;DHT22;7744;52.172;10.668;2023-05-10T04:19:16;11.70;1.00
15286;DHT22;7744;52.172;10.668;2023-05-10T04:21:42;11.50;1.00
15286;DHT22;7744;52.172;10.668;2023-05-10T04:24:07;11.20;1.00
15286;DHT22;7744;52.172;10.668;2023-05-10T04:26:33;11.20;1.00
15286;DHT22;7744;52.172;10.668;2023-05-10T04:28:59;11.20;1.00
15286;DHT22;7744;52.172;10.668;2023-05-10T04:31:24;11.20;1.00
15286;DHT22;7744;52.172;10.668;2023-05-10T04:33:50;11.20;1.00
15286;DHT22;7744;52.172;10.668;2023-05-10T04:36:15;11.20;1.00
15286;DHT22;7744;52.172;10.668;2023-05-10T04:38:41;11.20;1.00
15286;DHT22;7744;52.172;10.668;2023-05-10T04:41:08;11.90;1.00
15286;DHT22;7744;52.172;10.668;2023-05-10T04:43:35;11.50;1.00
15286;DHT22;7744;52.172;10.668;2023-05-10T04:46:01;11.20;1.00
15286;DHT22;7744;52.172;10.668;2023-05-10T04:48:27;11.30;1.00
15286;DHT22;7744;52.172;10.668;2023-05-10T04:50:52;11.30;1.00
15286;DHT22;7744;52.172;10.668;2023-05-10T04:53:18;11.20;1.00
15286;DHT22;7744;52.172;10.668;2023-05-10T04:55:43;11.20;1.00
15286;DHT22;7744;52.172;10.668;2023-05-10T04:58:09;11.20;1.00
15286;DHT22;7744;52.172;10.668;2023-05-10T05:00:34;11.30;1.00
15286;DHT22;7744;52.172;10.668;2023-05-10T05:03:00;11.20;1.00
15286;DHT22;7744;52.172;10.668;2023-05-10T05:05:26;11.20;1.00
15286;DHT22;7744;52.172;10.668;2023-05-10T05:07:51;11.20;1.00
15286;DHT22;7744;52.172;10.668;2023-05-10T05:10:17;11.10;1.00
15286;DHT22;7744;52.172;10.668;2023-05-10T05:12:43;11.10;1.00
15286;DHT22;7744;52.172;10.668;2023-05-10T05:15:08;12.00;1.00
15286;DHT22;7744;52.172;10.668;2023-05-10T05:17:35;11.20;1.00
15286;DHT22;7744;52.172;10.668;2023-05-10T05:20:00;11.10;1.00
15286;DHT22;7744;52.172;10.668;2023-05-10T05:22:26;11.20;1.00
15286;DHT22;7744;52.172;10.668;2023-05-10T05:24:56;11.20;1.00
15286;DHT22;7744;52.172;10.668;2023-05-10T05:27:22;11.10;1.00
15286;DHT22;7744;52.172;10.668;2023-05-10T05:29:50;11.10;1.00
15286;DHT22;7744;52.172;10.668;2023-05-10T05:32:16;11.10;1.00
15286;DHT22;7744;52.172;10.668;2023-05-10T05:34:43;11.10;1.00
15286;DHT22;7744;52.172;10.668;2023-05-10T05:37:13;11.10;1.00
15286;DHT22;7744;52.172;10.668;2023-05-10T05:39:39;11.10;1.00
15286;DHT22;7744;52.172;10.668;2023-05-10T05:42:05;11.40;1.00
15286;DHT22;7744;52.172;10.668;2023-05-10T05:44:30;11.20;1.00
15286;DHT22;7744;52.172;10.668;2023-05-10T05:46:56;11.30;1.00
15286;DHT22;7744;52.172;10.668;2023-05-10T05:49:22;11.20;1.00
15286;DHT22;7744;52.172;10.668;2023-05-10T05:51:47;11.40;1.00
15286;DHT22;7744;52.172;10.668;2023-05-10T05:54:14;12.00;1.00
15286;DHT22;7744;52.172;10.668;2023-05-10T05:56:40;12.90;1.00
15286;DHT22;7744;52.172;10.668;2023-05-10T05:59:06;12.20;1.00
15286;DHT22;7744;52.172;10.668;2023-05-10T06:01:31;12.50;1.00
15286;DHT22;7744;52.172;10.668;2023-05-10T06:03:57;11.70;1.00
15286;DHT22;7744;52.172;10.668;2023-05-10T06:06:29;11.70;1.00
15286;DHT22;7744;52.172;10.668;2023-05-10T06:08:55;12.40;1.00
15286;DHT22;7744;52.172;10.668;2023-05-10T06:11:21;11.80;1.00
15286;DHT22;7744;52.172;10.668;2023-05-10T06:13:54;11.90;1.00
15286;DHT22;7744;52.172;10.668;2023-05-10T06:16:20;12.00;1.00
15286;DHT22;7744;52.172;10.668;2023-05-10T06:18:45;12.10;1.00
15286;DHT22;7744;52.172;10.668;2023-05-10T06:21:11;12.20;1.00
15286;DHT22;7744;52.172;10.668;2023-05-10T06:23:36;12.30;1.00
15286;DHT22;7744;52.172;10.668;2023-05-10T06:26:02;12.50;1.00
15286;DHT22;7744;52.172;10.668;2023-05-10T06:28:28;12.60;1.00
15286;DHT22;7744;52.172;10.668;2023-05-10T06:30:54;12.60;1.00
15286;DHT22;7744;52.172;10.668;2023-05-10T06:33:19;12.50;1.00
15286;DHT22;7744;52.172;10.668;2023-05-10T06:35:45;12.50;1.00
15286;DHT22;7744;52.172;10.668;2023-05-10T06:38:10;12.50;1.00
15286;DHT22;7744;52.172;10.668;2023-05-10T06:40:36;12.60;1.00
15286;DHT22;7744;52.172;10.668;2023-05-10T06:43:01;12.30;1.00
15286;DHT22;7744;52.172;10.668;2023-05-10T06:45:27;12.20;1.00
15286;DHT22;7744;52.172;10.668;2023-05-10T06:47:53;12.20;1.00
15286;DHT22;7744;52.172;10.668;2023-05-10T06:50:18;12.40;1.00
15286;DHT22;7744;52.172;10.668;2023-05-10T06:52:44;12.60;1.00
15286;DHT22;7744;52.172;10.668;2023-05-10T06:55:10;12.70;1.00
15286;DHT22;7744;52.172;10.668;2023-05-10T06:57:35;13.30;1.00
15286;DHT22;7744;52.172;10.668;2023-05-10T07:00:02;12.90;1.00
15286;DHT22;7744;52.172;10.668;2023-05-10T07:02:29;12.80;1.00
15286;DHT22;7744;52.172;10.668;2023-05-10T07:04:54;12.90;1.00
15286;DHT22;7744;52.172;10.668;2023-05-10T07:07:20;12.90;1.00
15286;DHT22;7744;52.172;10.668;2023-05-10T07:09:46;12.50;1.00
15286;DHT22;7744;52.172;10.668;2023-05-10T07:12:11;12.60;1.00
15286;DHT22;7744;52.172;10.668;2023-05-10T07:14:37;12.60;1.00
15286;DHT22;7744;52.172;10.668;2023-05-10T07:17:03;12.70;1.00
15286;DHT22;7744;52.172;10.668;2023-05-10T07:19:28;12.90;1.00
15286;DHT22;7744;52.172;10.668;2023-05-10T07:21:55;12.90;1.00
15286;DHT22;7744;52.172;10.668;2023-05-10T07:24:20;13.60;1.00
15286;DHT22;7744;52.172;10.668;2023-05-10T07:26:46;13.10;1.00
15286;DHT22;7744;52.172;10.668;2023-05-10T07:29:11;13.50;1.00
15286;DHT22;7744;52.172;10.668;2023-05-10T07:31:37;13.00;1.00
15286;DHT22;7744;52.172;10.668;2023-05-10T07:34:03;13.00;1.00
15286;DHT22;7744;52.172;10.668;2023-05-10T07:36:28;13.10;1.00
15286;DHT22;7744;52.172;10.668;2023-05-10T07:38:54;13.10;1.00
15286;DHT22;7744;52.172;10.668;2023-05-10T07:41:19;13.20;1.00
15286;DHT22;7744;52.172;10.668;2023-05-10T07:43:46;13.70;1.00
15286;DHT22;7744;52.172;10.668;2023-05-10T07:46:11;13.60;1.00
15286;DHT22;7744;52.172;10.668;2023-05-10T07:48:37;14.00;1.00
15286;DHT22;7744;52.172;10.668;2023-05-10T07:51:03;14.40;1.00
15286;DHT22;7744;52.172;10.668;2023-05-10T07:53:28;13.90;1.00
15286;DHT22;7744;52.172;10.668;2023-05-10T07:55:56;14.10;1.00
15286;DHT22;7744;52.172;10.668;2023-05-10T07:58:23;14.70;1.00
15286;DHT22;7744;52.172;10.668;2023-05-10T08:00:49;14.60;1.00
15286;DHT22;7744;52.172;10.668;2023-05-10T08:03:15;14.70;1.00
15286;DHT22;7744;52.172;10.668;2023-05-10T08:05:40;14.80;1.00
15286;DHT22;7744;52.172;10.668;2023-05-10T08:08:06;14.70;1.00
15286;DHT22;7744;52.172;10.668;2023-05-10T08:10:32;14.20;1.00
15286;DHT22;7744;52.172;10.668;2023-05-10T08:12:57;14.00;1.00
15286;DHT22;7744;52.172;10.668;2023-05-10T08:15:24;14.00;1.00
15286;DHT22;7744;52.172;10.668;2023-05-10T08:17:51;13.90;1.00
15286;DHT22;7744;52.172;10.668;2023-05-10T08:20:16;14.00;1.00
15286;DHT22;7744;52.172;10.668;2023-05-10T08:22:45;14.00;1.00
15286;DHT22;7744;52.172;10.668;2023-05-10T08:25:10;13.80;1.00
15286;DHT22;7744;52.172;10.668;2023-05-10T08:27:36;13.70;1.00
15286;DHT22;7744;52.172;10.668;2023-05-10T08:30:02;14.20;1.00
15286;DHT22;7744;52.172;10.668;2023-05-10T08:32:27;13.60;7.20
15286;DHT22;7744;52.172;10.668;2023-05-10T08:34:53;13.50;6.00
15286;DHT22;7744;52.172;10.668;2023-05-10T08:37:18;13.50;95.50
15286;DHT22;7744;52.172;10.668;2023-05-10T08:39:44;13.40;99.90
15286;DHT22;7744;52.172;10.668;2023-05-10T08:42:16;13.40;95.90
15286;DHT22;7744;52.172;10.668;2023-05-10T08:44:42;13.50;99.90
15286;DHT22;7744;52.172;10.668;2023-05-10T08:47:09;13.60;99.90
15286;DHT22;7744;52.172;10.668;2023-05-10T08:49:40;13.60;99.90
15286;DHT22;7744;52.172;10.668;2023-05-10T08:52:07;14.70;99.90
15286;DHT22;7744;52.172;10.668;2023-05-10T08:54:33;14.50;99.90
15286;DHT22;7744;52.172;10.668;2023-05-10T08:56:59;14.00;99.90
15286;DHT22;7744;52.172;10.668;2023-05-10T08:59:25;14.30;99.90
15286;DHT22;7744;52.172;10.668;2023-05-10T09:01:52;15.10;99.90
15286;DHT22;7744;52.172;10.668;2023-05-10T09:04:20;15.10;99.90
15286;DHT22;7744;52.172;10.668;2023-05-10T09:06:46;14.80;97.10
15286;DHT22;7744;52.172;10.668;2023-05-10T09:09:12;15.10;97.60
15286;DHT22;7744;52.172;10.668;2023-05-10T09:11:37;14.80;80.10
15286;DHT22;7744;52.172;10.668;2023-05-10T09:14:03;15.70;49.10
15286;DHT22;7744;52.172;10.668;2023-05-10T09:16:29;16.10;79.70
15286;DHT22;7744;52.172;10.668;2023-05-10T09:18:55;15.60;24.70
15286;DHT22;7744;52.172;10.668;2023-05-10T09:21:21;15.50;38.30
15286;DHT22;7744;52.172;10.668;2023-05-10T09:23:47;16.20;99.90
15286;DHT22;7744;52.172;10.668;2023-05-10T09:26:15;16.30;63.00
15286;DHT22;7744;52.172;10.668;2023-05-10T09:28:56;15.90;99.90
15286;DHT22;7744;52.172;10.668;2023-05-10T09:31:22;16.20;52.80
15286;DHT22;7744;52.172;10.668;2023-05-10T09:33:49;15.60;49.80
15286;DHT22;7744;52.172;10.668;2023-05-10T09:36:16;15.70;41.20
15286;DHT22;7744;52.172;10.668;2023-05-10T09:38:46;15.20;37.00
15286;DHT22;7744;52.172;10.668;2023-05-10T09:41:21;15.60;72.10
15286;DHT22;7744;52.172;10.668;2023-05-10T09:43:47;15.00;90.10
15286;DHT22;7744;52.172;10.668;2023-05-10T09:46:13;15.10;99.90
15286;DHT22;7744;52.172;10.668;2023-05-10T09:48:48;15.30;99.90
15286;DHT22;7744;52.172;10.668;2023-05-10T09:51:24;15.30;99.90
15286;DHT22;7744;52.172;10.668;2023-05-10T09:54:12;15.30;99.90
15286;DHT22;7744;52.172;10.668;2023-05-10T09:56:38;14.80;99.90
15286;DHT22;7744;52.172;10.668;2023-05-10T09:59:07;15.40;99.90
15286;DHT22;7744;52.172;10.668;2023-05-10T10:01:34;15.70;99.90
15286;DHT22;7744;52.172;10.668;2023-05-10T10:04:04;15.30;99.90
15286;DHT22;7744;52.172;10.668;2023-05-10T10:06:38;14.70;1.00
15286;DHT22;7744;52.172;10.668;2023-05-10T10:09:04;15.40;1.00
15286;DHT22;7744;52.172;10.668;2023-05-10T10:11:30;14.60;1.00
15286;DHT22;7744;52.172;10.668;2023-05-10T10:13:56;14.50;1.00
15286;DHT22;7744;52.172;10.668;2023-05-10T10:16:21;15.60;99.90
15286;DHT22;7744;52.172;10.668;2023-05-10T10:18:47;14.80;99.90
15286;DHT22;7744;52.172;10.668;2023-05-10T10:21:14;14.60;99.90
15286;DHT22;7744;52.172;10.668;2023-05-10T10:23:40;15.00;1.00
15286;DHT22;7744;52.172;10.668;2023-05-10T10:26:06;15.10;1.00
15286;DHT22;7744;52.172;10.668;2023-05-10T10:34:00;15.00;1.00
15286;DHT22;7744;52.172;10.668;2023-05-10T10:36:27;14.00;1.00
15286;DHT22;7744;52.172;10.668;2023-05-10T10:39:00;14.10;99.90
15286;DHT22;7744;52.172;10.668;2023-05-10T10:41:35;12.70;1.00
15286;DHT22;7744;52.172;10.668;2023-05-10T10:47:06;13.60;1.00
15286;DHT22;7744;52.172;10.668;2023-05-10T10:49:49;14.70;1.00
15286;DHT22;7744;52.172;10.668;2023-05-10T10:52:41;13.70;99.90
15286;DHT22;7744;52.172;10.668;2023-05-10T10:57:56;14.20;1.00
15286;DHT22;7744;52.172;10.668;2023-05-10T11:00:33;13.70;1.00
15286;DHT22;7744;52.172;10.668;2023-05-10T11:03:06;14.00;1.00
15286;DHT22;7744;52.172;10.668;2023-05-10T11:15:17;15.30;1.00
15286;DHT22;7744;52.172;10.668;2023-05-10T11:21:51;14.70;97.50
15286;DHT22;7744;52.172;10.668;2023-05-10T11:24:58;14.60;1.00
15286;DHT22;7744;52.172;10.668;2023-05-10T11:27:26;14.90;99.90
15286;DHT22;7744;52.172;10.668;2023-05-10T11:29:58;14.60;1.00
15286;DHT22;7744;52.172;10.668;2023-05-10T11:32:40;14.70;1.00
15286;DHT22;7744;52.172;10.668;2023-05-10T11:35:08;15.90;99.90
15286;DHT22;7744;52.172;10.668;2023-05-10T11:40:42;15.30;99.90
15286;DHT22;7744;52.172;10.668;2023-05-10T11:50:42;15.60;99.90
15286;DHT22;7744;52.172;10.668;2023-05-10T11:53:54;15.60;99.90
15286;DHT22;7744;52.172;10.668;2023-05-10T11:56:29;16.00;99.90
15286;DHT22;7744;52.172;10.668;2023-05-10T11:58:57;15.50;99.90
15286;DHT22;7744;52.172;10.668;2023-05-10T12:01:27;17.20;99.90
15286;DHT22;7744;52.172;10.668;2023-05-10T12:03:54;17.30;99.90
15286;DHT22;7744;52.172;10.668;2023-05-10T12:06:21;16.70;51.40
15286;DHT22;7744;52.172;10.668;2023-05-10T12:08:48;17.20;32.10
15286;DHT22;7744;52.172;10.668;2023-05-10T12:11:24;17.70;15.20
15286;DHT22;7744;52.172;10.668;2023-05-10T12:13:50;17.90;11.10
15286;DHT22;7744;52.172;10.668;2023-05-10T12:16:21;17.20;1.00
15286;DHT22;7744;52.172;10.668;2023-05-10T12:18:54;17.20;1.00
15286;DHT22;7744;52.172;10.668;2023-05-10T12:21:21;18.40;1.00
15286;DHT22;7744;52.172;10.668;2023-05-10T12:23:51;18.30;1.00
15286;DHT22;7744;52.172;10.668;2023-05-10T12:26:18;18.70;1.00
15286;DHT22;7744;52.172;10.668;2023-05-10T12:28:44;17.60;1.00
15286;DHT22;7744;52.172;10.668;2023-05-10T12:31:09;17.80;1.00
15286;DHT22;7744;52.172;10.668;2023-05-10T12:33:41;18.00;1.00
15286;DHT22;7744;52.172;10.668;2023-05-10T12:36:09;18.90;1.00
15286;DHT22;7744;52.172;10.668;2023-05-10T12:38:36;18.10;1.00
15286;DHT22;7744;52.172;10.668;2023-05-10T12:41:05;18.70;1.00
15286;DHT22;7744;52.172;10.668;2023-05-10T12:43:31;18.40;1.00
15286;DHT22;7744;52.172;10.668;2023-05-10T12:45:57;19.40;1.00
15286;DHT22;7744;52.172;10.668;2023-05-10T12:48:24;19.20;1.00
15286;DHT22;7744;52.172;10.668;2023-05-10T12:50:50;18.50;1.00
15286;DHT22;7744;52.172;10.668;2023-05-10T12:53:16;19.00;1.00
15286;DHT22;7744;52.172;10.668;2023-05-10T12:55:42;18.80;1.00
15286;DHT22;7744;52.172;10.668;2023-05-10T12:58:08;18.50;1.00
15286;DHT22;7744;52.172;10.668;2023-05-10T13:00:34;18.50;1.00
15286;DHT22;7744;52.172;10.668;2023-05-10T13:03:00;18.20;1.00
15286;DHT22;7744;52.172;10.668;2023-05-10T13:05:25;19.30;1.00
15286;DHT22;7744;52.172;10.668;2023-05-10T13:07:51;19.30;1.00
15286;DHT22;7744;52.172;10.668;2023-05-10T13:10:17;18.80;1.00
15286;DHT22;7744;52.172;10.668;2023-05-10T13:12:42;18.90;1.00
15286;DHT22;7744;52.172;10.668;2023-05-10T13:15:08;19.10;1.00
15286;DHT22;7744;52.172;10.668;2023-05-10T13:17:34;19.10;1.00
15286;DHT22;7744;52.172;10.668;2023-05-10T13:19:59;20.00;1.00
15286;DHT22;7744;52.172;10.668;2023-05-10T13:22:25;19.50;1.00
15286;DHT22;7744;52.172;10.668;2023-05-10T13:24:51;19.00;1.00
15286;DHT22;7744;52.172;10.668;2023-05-10T13:27:16;18.80;1.00
15286;DHT22;7744;52.172;10.668;2023-05-10T13:29:42;19.70;1.00
15286;DHT22;7744;52.172;10.668;2023-05-10T13:32:07;19.30;1.00
15286;DHT22;7744;52.172;10.668;2023-05-10T13:34:33;20.00;1.00
15286;DHT22;7744;52.172;10.668;2023-05-10T13:37:01;20.20;1.00
15286;DHT22;7744;52.172;10.668;2023-05-10T13:39:26;19.50;1.00
15286;DHT22;7744;52.172;10.668;2023-05-10T13:41:52;19.70;1.00
15286;DHT22;7744;52.172;10.668;2023-05-10T13:44:19;20.30;1.00
15286;DHT22;7744;52.172;10.668;2023-05-10T13:46:45;19.50;1.00
15286;DHT22;7744;52.172;10.668;2023-05-10T13:49:11;19.70;1.00
15286;DHT22;7744;52.172;10.668;2023-05-10T13:51:37;19.30;1.00
15286;DHT22;7744;52.172;10.668;2023-05-10T13:54:03;19.10;1.00
15286;DHT22;7744;52.172;10.668;2023-05-10T13:56:28;18.30;1.00
15286;DHT22;7744;52.172;10.668;2023-05-10T13:58:56;18.50;1.00
15286;DHT22;7744;52.172;10.668;2023-05-10T14:01:22;18.80;1.00
15286;DHT22;7744;52.172;10.668;2023-05-10T14:03:47;19.50;1.00
15286;DHT22;7744;52.172;10.668;2023-05-10T14:06:18;19.00;1.00
15286;DHT22;7744;52.172;10.668;2023-05-10T14:08:43;19.80;1.00
15286;DHT22;7744;52.172;10.668;2023-05-10T14:11:09;19.70;1.00
15286;DHT22;7744;52.172;10.668;2023-05-10T14:13:34;19.20;1.00
15286;DHT22;7744;52.172;10.668;2023-05-10T14:16:00;19.40;1.00
15286;DHT22;7744;52.172;10.668;2023-05-10T14:18:27;18.80;1.00
15286;DHT22;7744;52.172;10.668;2023-05-10T14:20:52;18.40;1.00
15286;DHT22;7744;52.172;10.668;2023-05-10T14:23:18;18.70;1.00
15286;DHT22;7744;52.172;10.668;2023-05-10T14:25:49;18.70;1.00
15286;DHT22;7744;52.172;10.668;2023-05-10T14:28:14;18.40;1.00
15286;DHT22;7744;52.172;10.668;2023-05-10T14:30:41;18.40;1.00
15286;DHT22;7744;52.172;10.668;2023-05-10T14:33:06;19.10;1.00
15286;DHT22;7744;52.172;10.668;2023-05-10T14:35:33;19.20;1.00
15286;DHT22;7744;52.172;10.668;2023-05-10T14:37:58;18.00;1.00
15286;DHT22;7744;52.172;10.668;2023-05-10T14:40:24;18.60;1.00
15286;DHT22;7744;52.172;10.668;2023-05-10T14:42:50;19.10;1.00
15286;DHT22;7744;52.172;10.668;2023-05-10T14:45:15;19.00;1.00
15286;DHT22;7744;52.172;10.668;2023-05-10T14:47:41;19.00;1.00
15286;DHT22;7744;52.172;10.668;2023-05-10T14:50:07;17.80;1.00
15286;DHT22;7744;52.172;10.668;2023-05-10T14:52:33;17.70;1.00
15286;DHT22;7744;52.172;10.668;2023-05-10T14:54:58;18.10;1.00
15286;DHT22;7744;52.172;10.668;2023-05-10T14:57:25;18.50;1.00
15286;DHT22;7744;52.172;10.668;2023-05-10T14:59:51;18.40;1.00
15286;DHT22;7744;52.172;10.668;2023-05-10T15:02:16;18.50;1.00
15286;DHT22;7744;52.172;10.668;2023-05-10T15:04:42;18.50;1.00
15286;DHT22;7744;52.172;10.668;2023-05-10T15:07:07;18.80;1.00
15286;DHT22;7744;52.172;10.668;2023-05-10T15:09:33;18.90;1.00
15286;DHT22;7744;52.172;10.668;2023-05-10T15:11:58;18.90;1.00
15286;DHT22;7744;52.172;10.668;2023-05-10T15:14:24;19.30;1.00
15286;DHT22;7744;52.172;10.668;2023-05-10T15:16:49;19.80;1.00
15286;DHT22;7744;52.172;10.668;2023-05-10T15:19:15;18.80;1.00
15286;DHT22;7744;52.172;10.668;2023-05-10T15:21:41;19.10;1.00
15286;DHT22;7744;52.172;10.668;2023-05-10T15:24:08;18.70;1.00
15286;DHT22;7744;52.172;10.668;2023-05-10T15:26:34;19.00;1.00
15286;DHT22;7744;52.172;10.668;2023-05-10T15:29:00;19.00;1.00
15286;DHT22;7744;52.172;10.668;2023-05-10T15:31:26;18.70;1.00
15286;DHT22;7744;52.172;10.668;2023-05-10T15:33:57;19.40;1.00
15286;DHT22;7744;52.172;10.668;2023-05-10T15:36:22;18.90;1.00
15286;DHT22;7744;52.172;10.668;2023-05-10T15:38:48;18.90;1.00
15286;DHT22;7744;52.172;10.668;2023-05-10T15:41:13;19.40;1.00
15286;DHT22;7744;52.172;10.668;2023-05-10T15:43:39;18.90;1.00
15286;DHT22;7744;52.172;10.668;2023-05-10T15:46:04;18.30;1.00
15286;DHT22;7744;52.172;10.668;2023-05-10T15:48:31;18.20;1.00
15286;DHT22;7744;52.172;10.668;2023-05-10T15:50:56;18.60;1.00
15286;DHT22;7744;52.172;10.668;2023-05-10T15:53:22;18.90;1.00
15286;DHT22;7744;52.172;10.668;2023-05-10T15:55:47;18.10;1.00
15286;DHT22;7744;52.172;10.668;2023-05-10T15:58:13;18.30;1.00
15286;DHT22;7744;52.172;10.668;2023-05-10T16:00:39;18.00;1.00
15286;DHT22;7744;52.172;10.668;2023-05-10T16:03:05;18.60;1.00
15286;DHT22;7744;52.172;10.668;2023-05-10T16:05:31;18.00;1.00
15286;DHT22;7744;52.172;10.668;2023-05-10T16:07:58;19.00;1.00
15286;DHT22;7744;52.172;10.668;2023-05-10T16:10:24;18.20;1.00
15286;DHT22;7744;52.172;10.668;2023-05-10T16:12:49;18.80;1.00
15286;DHT22;7744;52.172;10.668;2023-05-10T16:15:15;18.80;1.00
15286;DHT22;7744;52.172;10.668;2023-05-10T16:17:41;18.20;1.00
15286;DHT22;7744;52.172;10.668;2023-05-10T16:20:07;18.30;1.00
15286;DHT22;7744;52.172;10.668;2023-05-10T16:22:33;18.30;1.00
15286;DHT22;7744;52.172;10.668;2023-05-10T16:24:58;19.20;1.00
15286;DHT22;7744;52.172;10.668;2023-05-10T16:27:24;19.60;1.00
15286;DHT22;7744;52.172;10.668;2023-05-10T16:29:52;18.80;1.00
15286;DHT22;7744;52.172;10.668;2023-05-10T16:32:18;18.90;1.00
15286;DHT22;7744;52.172;10.668;2023-05-10T16:34:43;18.30;1.00
15286;DHT22;7744;52.172;10.668;2023-05-10T16:37:09;18.20;1.00
15286;DHT22;7744;52.172;10.668;2023-05-10T16:39:35;18.00;1.00
15286;DHT22;7744;52.172;10.668;2023-05-10T16:42:01;17.80;1.00
15286;DHT22;7744;52.172;10.668;2023-05-10T16:44:27;17.70;1.00